Time;durP1;ratioP1;P1;durP2;ratioP2;P2;SDS_P1;SDS_P2;PMS_P1;PMS_P2;Temp;Humidity;BMP_temperature;BMP_pressure;BME280_temperature;BME280_humidity;BME280_pressure;Samples;Min_cycle;Max_cycle;Signal;HPM_P1;HPM_P2
2022/11/10 00:00:02;;;;;;;72.38;39.40;;;333.60;2329.60;;;;;;4996841;28;20025;-57
2022/11/10 00:02:28;;;;;;;67.65;37.85;;;333.60;2329.60;;;;;;5005986;28;20117;-56
2022/11/10 00:04:54;;;;;;;68.75;37.35;;;333.60;2329.60;;;;;;5010711;28;20148;-56
2022/11/10 00:07:23;;;;;;;71.53;39.22;;;;;;;;;;5011361;28;20125;-56
2022/11/10 00:09:51;;;;;;;96.18;52.45;;;;;;;;;;5006718;28;20048;-58
2022/11/10 00:12:17;;;;;;;83.25;44.83;;;;;;;;;;5008526;28;20046;-56
2022/11/10 00:17:28;;;;;;;67.00;38.15;;;;;;;;;;5006699;28;20529;-57
2022/11/10 00:19:54;;;;;;;68.20;39.13;;;;;;;;;;5010989;28;20022;-57
2022/11/10 00:22:20;;;;;;;64.65;37.35;;;358.60;2227.20;;;;;;5007872;28;20033;-57
2022/11/10 00:24:45;;;;;;;81.32;42.65;;;358.50;2329.60;;;;;;5009439;28;20380;-56
2022/11/10 00:27:13;;;;;;;112.10;55.83;;;333.70;2329.60;;;;;;5007457;28;20103;-56
2022/11/10 00:29:39;;;;;;;102.60;49.83;;;;;;;;;;5011016;28;20165;-56
2022/11/10 00:32:05;;;;;;;91.95;48.20;;;;;;;;;;5005900;28;20035;-57
2022/11/10 00:34:31;;;;;;;124.90;58.58;;;;;;;;;;5008780;28;20029;-57
2022/11/10 00:36:57;;;;;;;161.98;69.20;;;;;;;;;;5010595;28;20387;-57
2022/11/10 00:39:23;;;;;;;76.28;41.28;;;;;;;;;;5010097;28;20072;-57
2022/11/10 00:41:49;;;;;;;145.57;59.60;;;358.80;2329.60;;;;;;5010586;28;20030;-57
2022/11/10 00:44:14;;;;;;;90.75;44.55;;;358.70;2329.60;;;;;;5008200;28;20037;-57
2022/11/10 00:46:40;;;;;;;79.53;41.95;;;358.70;2329.60;;;;;;5007638;28;20045;-59
2022/11/10 00:49:06;;;;;;;68.63;39.67;;;358.50;2329.60;;;;;;5009496;28;20033;-57
2022/11/10 00:51:31;;;;;;;65.20;37.63;;;358.50;2329.60;;;;;;5010521;28;20028;-56
2022/11/10 00:53:57;;;;;;;63.92;36.53;;;358.50;2329.60;;;;;;5004796;28;20042;-58
2022/11/10 00:56:23;;;;;;;68.00;37.72;;;358.50;2329.60;;;;;;5009936;28;20038;-58
2022/11/10 00:58:49;;;;;;;65.10;36.60;;;358.50;2329.60;;;;;;5010076;28;20021;-57
2022/11/10 01:01:17;;;;;;;61.75;35.72;;;358.40;2329.60;;;;;;5006631;28;20129;-57
2022/11/10 01:03:43;;;;;;;64.43;35.92;;;333.70;2329.60;;;;;;5009700;28;20018;-57
2022/11/10 01:06:11;;;;;;;61.80;36.63;;;358.40;2329.60;;;;;;5005257;28;20042;-57
2022/11/10 01:08:38;;;;;;;67.65;37.90;;;358.50;2329.60;;;;;;5006491;28;20076;-57
2022/11/10 01:11:06;;;;;;;62.58;36.55;;;358.50;2329.60;;;;;;5006738;28;20034;-57
2022/11/10 01:13:31;;;;;;;65.63;36.42;;;358.60;2329.60;;;;;;5001453;28;20365;-57
2022/11/10 01:16:03;;;;;;;64.80;37.75;;;358.60;2329.60;;;;;;5005170;28;20037;-59
2022/11/10 01:18:29;;;;;;;65.57;37.60;;;358.60;2329.60;;;;;;5004936;28;20662;-58
2022/11/10 01:20:54;;;;;;;74.80;41.45;;;358.70;2329.60;;;;;;5006016;28;20026;-57
2022/11/10 01:23:20;;;;;;;85.25;43.55;;;358.70;2329.60;;;;;;5009932;28;20036;-59
2022/11/10 01:25:46;;;;;;;83.80;43.20;;;358.60;2329.60;;;;;;5009268;28;20467;-58
2022/11/10 01:28:11;;;;;;;87.75;43.80;;;358.70;2329.60;;;;;;5009379;28;20022;-57
2022/11/10 01:30:37;;;;;;;97.05;45.60;;;358.70;2329.60;;;;;;5008910;28;20078;-58
2022/11/10 01:33:03;;;;;;;72.65;39.85;;;358.70;2329.60;;;;;;5007265;28;20034;-57
2022/11/10 01:35:28;;;;;;;74.57;39.28;;;358.70;2329.60;;;;;;5009487;28;20071;-57
2022/11/10 01:37:54;;;;;;;79.13;42.58;;;358.70;2329.60;;;;;;5009381;28;20026;-57
2022/11/10 01:40:20;;;;;;;69.78;39.97;;;358.60;2329.60;;;;;;5009543;28;20030;-57
2022/11/10 01:42:54;;;;;;;69.88;39.03;;;358.40;2329.60;;;;;;5005657;28;20545;-58
2022/11/10 01:45:23;;;;;;;66.87;37.87;;;333.70;2329.60;;;;;;5009262;28;20467;-57
2022/11/10 01:47:55;;;;;;;66.20;36.53;;;358.40;2329.60;;;;;;5004335;28;20049;-58
2022/11/10 01:50:25;;;;;;;64.43;35.33;;;358.40;2329.60;;;;;;5009417;28;20379;-57
2022/11/10 01:52:55;;;;;;;66.25;36.83;;;333.70;2329.60;;;;;;5001842;28;20026;-57
2022/11/10 01:55:21;;;;;;;63.45;36.72;;;358.40;2329.60;;;;;;5008021;28;20037;-58
2022/11/10 01:57:47;;;;;;;67.53;35.90;;;358.40;2329.60;;;;;;5004323;28;20049;-57
2022/11/10 02:00:13;;;;;;;63.10;37.28;;;358.40;2329.60;;;;;;5006979;28;20042;-57
2022/11/10 02:02:51;;;;;;;64.93;36.03;;;358.40;2329.60;;;;;;4999286;28;20105;-58
2022/11/10 02:05:17;;;;;;;64.32;36.15;;;333.70;2329.60;;;;;;5006585;28;20108;-57
2022/11/10 02:07:44;;;;;;;66.90;37.45;;;333.70;2329.60;;;;;;5007352;28;20030;-58
2022/11/10 02:10:18;;;;;;;66.10;38.28;;;333.60;2329.60;;;;;;5009282;28;20030;-58
2022/11/10 02:12:45;;;;;;;67.30;36.85;;;333.50;2329.60;;;;;;4988970;28;20033;-57
2022/11/10 02:15:14;;;;;;;61.90;34.30;;;333.50;2329.60;;;;;;5000226;28;20050;-58
2022/11/10 02:17:41;;;;;;;62.97;35.28;;;333.70;2329.60;;;;;;5007864;28;20022;-57
2022/11/10 02:20:10;;;;;;;61.28;34.65;;;333.60;2329.60;;;;;;5003557;28;20018;-57
2022/11/10 02:22:36;;;;;;;62.78;34.38;;;333.70;2329.60;;;;;;5005328;28;20452;-57
2022/11/10 02:25:02;;;;;;;61.28;36.08;;;;;;;;;;5008120;28;20057;-57
2022/11/10 02:27:29;;;;;;;62.85;36.30;;;;;;;;;;5008758;28;20472;-57
2022/11/10 02:29:55;;;;;;;68.47;36.70;;;;;;;;;;5006040;28;20084;-57
2022/11/10 02:32:21;;;;;;;58.10;34.45;;;358.60;2329.60;;;;;;5003604;28;20173;-57
2022/11/10 02:34:47;;;;;;;59.63;35.10;;;333.70;2329.60;;;;;;5001193;28;20101;-57
2022/11/10 02:37:12;;;;;;;59.60;35.08;;;333.60;2329.60;;;;;;5009003;28;20037;-57
2022/11/10 02:39:38;;;;;;;55.70;33.53;;;333.70;2329.60;;;;;;5001665;28;20038;-57
2022/11/10 02:42:09;;;;;;;58.88;34.60;;;;;;;;;;4989671;28;20034;-57
2022/11/10 02:44:36;;;;;;;59.28;34.83;;;358.60;2073.60;;;;;;4989336;28;20153;-57
2022/11/10 02:47:02;;;;;;;59.53;34.22;;;358.40;2329.60;;;;;;4989395;28;20038;-57
2022/11/10 02:49:27;;;;;;;64.47;36.20;;;333.70;2329.60;;;;;;4989910;28;20045;-57
2022/11/10 02:51:53;;;;;;;54.95;34.75;;;333.60;2329.60;;;;;;4988763;28;20502;-57
2022/11/10 02:54:20;;;;;;;57.17;35.22;;;333.60;2329.60;;;;;;4989326;28;20046;-57
2022/11/10 02:56:45;;;;;;;57.17;34.92;;;333.70;2329.60;;;;;;4989089;28;20434;-57
2022/11/10 02:59:11;;;;;;;56.75;34.80;;;333.60;2329.60;;;;;;4989055;28;20023;-57
2022/11/10 03:01:37;;;;;;;62.30;35.55;;;333.60;2329.60;;;;;;4988706;28;20045;-57
2022/11/10 03:04:03;;;;;;;58.50;34.25;;;333.60;2329.60;;;;;;4989588;28;20030;-57
2022/11/10 03:06:28;;;;;;;59.28;35.50;;;333.60;2329.60;;;;;;4991792;28;20040;-57
2022/11/10 03:08:54;;;;;;;61.72;35.97;;;333.40;2329.60;;;;;;5009027;28;20490;-57
2022/11/10 03:11:19;;;;;;;60.55;35.42;;;333.30;2329.60;;;;;;4996422;28;20114;-57
2022/11/10 03:13:45;;;;;;;61.30;35.58;;;333.30;2329.60;;;;;;4989756;28;20534;-57
2022/11/10 03:16:11;;;;;;;61.97;36.90;;;333.30;2329.60;;;;;;4989127;28;20097;-57
2022/11/10 03:18:37;;;;;;;62.35;36.28;;;;;;;;;;4989093;28;20097;-57
2022/11/10 03:21:03;;;;;;;61.80;36.72;;;;;;;;;;4988599;28;20022;-57
2022/11/10 03:23:29;;;;;;;60.70;35.83;;;;;;;;;;4988354;28;20050;-57
2022/11/10 03:25:55;;;;;;;60.40;36.10;;;;;;;;;;4989075;28;20026;-57
2022/11/10 03:28:21;;;;;;;62.33;35.08;;;;;;;;;;4988353;28;20030;-57
2022/11/10 03:30:47;;;;;;;61.05;35.72;;;;;;;;;;4989350;28;20027;-57
2022/11/10 03:33:13;;;;;;;60.65;35.90;;;;;;;;;;4989330;28;20393;-58
2022/11/10 03:35:39;;;;;;;59.70;35.88;;;;;;;;;;4988739;28;20085;-57
2022/11/10 03:38:05;;;;;;;62.90;36.85;;;;;;;;;;4992208;28;20038;-57
2022/11/10 03:40:31;;;;;;;58.10;35.45;;;;;;;;;;4991656;28;20038;-57
2022/11/10 03:42:57;;;;;;;61.10;36.40;;;;;;;;;;4992009;28;20460;-57
2022/11/10 03:45:23;;;;;;;63.17;37.08;;;;;;;;;;4992101;28;20084;-57
2022/11/10 03:47:50;;;;;;;65.43;35.75;;;;;;;;;;4992633;28;20121;-57
2022/11/10 03:50:16;;;;;;;62.03;36.38;;;;;;;;;;4985166;28;20082;-57
2022/11/10 03:52:42;;;;;;;62.10;36.47;;;;;;;;;;4973316;28;20455;-57
2022/11/10 03:55:10;;;;;;;62.22;36.70;;;;;;;;;;4992222;28;20057;-57
2022/11/10 03:57:36;;;;;;;60.83;36.13;;;;;;;;;;4991632;28;20828;-57
2022/11/10 04:00:03;;;;;;;60.78;35.83;;;;;;;;;;4992076;28;20034;-57
2022/11/10 04:02:29;;;;;;;64.97;39.53;;;;;;;;;;4991597;28;20038;-58
2022/11/10 04:10:24;;;;;;;73.03;44.00;;;;;;;;;;4991027;28;20029;-57
2022/11/10 04:15:40;;;;;;;73.50;44.97;;;;;;;;;;4991254;28;20049;-57
2022/11/10 04:18:25;;;;;;;136.40;90.60;;;;;;;;;;4991219;28;20026;-57
2022/11/10 04:20:55;;;;;;;68.22;41.70;;;;;;;;;;4991269;28;20433;-57
2022/11/10 04:23:34;;;;;;;76.47;46.83;;;;;;;;;;4991037;28;20037;-57
2022/11/10 04:28:53;;;;;;;67.22;41.88;;;;;;;;;;4990986;28;20166;-57
2022/11/10 04:31:20;;;;;;;61.13;37.25;;;;;;;;;;4991054;28;20034;-57
2022/11/10 04:33:46;;;;;;;74.30;43.75;;;;;;;;;;4990993;28;20711;-58
2022/11/10 04:36:14;;;;;;;89.35;50.85;;;;;;;;;;4991141;28;20125;-57
2022/11/10 04:38:40;;;;;;;69.85;38.17;;;;;;;;;;4990814;28;20037;-57
2022/11/10 04:41:06;;;;;;;65.47;39.15;;;;;;;;;;4990199;28;20056;-58
2022/11/10 04:43:32;;;;;;;69.60;39.10;;;;;;;;;;4990776;28;20511;-57
2022/11/10 04:45:58;;;;;;;68.75;40.58;;;;;;;;;;4990909;28;20035;-57
2022/11/10 04:48:25;;;;;;;67.60;39.72;;;;;;;;;;4990643;28;20030;-58
2022/11/10 04:50:51;;;;;;;69.05;40.22;;;;;;;;;;4992420;28;20472;-57
2022/11/10 04:53:17;;;;;;;72.00;43.15;;;;;;;;;;4984675;28;20047;-58
2022/11/10 04:55:44;;;;;;;74.88;42.13;;;333.40;2329.60;;;;;;4990902;28;20053;-57
2022/11/10 04:58:11;;;;;;;74.75;42.85;;;;;;;;;;4972236;28;20158;-57
2022/11/10 05:00:37;;;;;;;71.88;42.45;;;;;;;;;;4981004;28;20030;-57
2022/11/10 05:03:05;;;;;;;70.47;40.38;;;;;;;;;;4990157;28;20018;-57
2022/11/10 05:05:31;;;;;;;71.97;42.00;;;333.60;2329.60;;;;;;4990550;28;20184;-57
2022/11/10 05:07:57;;;;;;;73.95;43.28;;;333.30;2329.60;;;;;;4991345;28;20033;-57
2022/11/10 05:10:24;;;;;;;72.63;41.95;;;333.20;2329.60;;;;;;4991463;28;20118;-57
2022/11/10 05:12:53;;;;;;;73.78;43.45;;;333.20;1996.80;;;;;;4991429;28;20026;-57
2022/11/10 05:15:19;;;;;;;69.43;42.25;;;333.20;2329.60;;;;;;4991145;28;20034;-57
2022/11/10 05:17:49;;;;;;;76.68;44.30;;;333.10;2329.60;;;;;;4991224;28;20184;-57
2022/11/10 05:20:16;;;;;;;72.40;42.88;;;333.10;2329.60;;;;;;4990884;28;20061;-57
2022/11/10 05:23:36;;;;;;;77.85;44.22;;;333.10;2329.60;;;;;;4991295;28;20027;-57
2022/11/10 05:25:32;;;;;;;70.22;41.40;;;333.10;2329.60;;;;;;4990437;28;20472;-57
2022/11/10 05:27:57;;;;;;;71.95;42.50;;;333.10;2329.60;;;;;;4990342;28;20027;-57
2022/11/10 05:30:23;;;;;;;75.55;43.53;;;333.20;2329.60;;;;;;4989712;28;20434;-56
2022/11/10 05:32:48;;;;;;;80.90;43.97;;;333.10;2329.60;;;;;;4990194;28;20027;-57
2022/11/10 05:35:15;;;;;;;87.00;50.28;;;333.30;2329.60;;;;;;4988328;28;20050;-57
2022/11/10 05:37:40;;;;;;;80.10;47.65;;;333.10;2329.60;;;;;;4990096;28;20041;-58
2022/11/10 05:40:07;;;;;;;84.78;49.47;;;333.10;2329.60;;;;;;4989078;28;20018;-57
2022/11/10 05:42:32;;;;;;;88.15;50.70;;;333.10;2329.60;;;;;;4989218;28;20117;-57
2022/11/10 05:44:58;;;;;;;91.55;52.03;;;333.10;2329.60;;;;;;4990718;28;20424;-57
2022/11/10 05:47:24;;;;;;;93.25;54.00;;;333.10;2227.20;;;;;;4990264;28;20141;-57
2022/11/10 05:49:49;;;;;;;226.63;130.48;;;333.10;2150.40;;;;;;4990135;28;20042;-57
2022/11/10 05:52:15;;;;;;;130.75;81.70;;;333.00;2329.60;;;;;;4990368;28;20030;-57
2022/11/10 05:54:41;;;;;;;104.30;59.67;;;333.10;2329.60;;;;;;4989583;28;20389;-56
2022/11/10 05:57:06;;;;;;;104.60;56.88;;;333.10;2329.60;;;;;;4989561;28;20057;-57
2022/11/10 05:59:32;;;;;;;100.35;54.83;;;333.10;2329.60;;;;;;4989634;28;20461;-58
2022/11/10 06:01:58;;;;;;;89.25;52.17;;;333.10;2329.60;;;;;;5004957;28;20048;-57
2022/11/10 06:04:23;;;;;;;88.53;49.65;;;333.10;2329.60;;;;;;5009330;28;20428;-57
2022/11/10 06:06:49;;;;;;;82.45;47.80;;;333.40;2329.60;;;;;;5001826;28;20372;-57
2022/11/10 06:09:14;;;;;;;76.25;44.65;;;333.40;2329.60;;;;;;5004237;28;20492;-57
2022/11/10 06:11:40;;;;;;;77.15;43.92;;;333.50;2329.60;;;;;;5000303;28;20037;-57
2022/11/10 06:14:06;;;;;;;88.13;47.95;;;333.60;2329.60;;;;;;4993757;28;20022;-57
2022/11/10 06:16:31;;;;;;;87.05;49.53;;;333.60;2329.60;;;;;;4989979;28;20049;-57
2022/11/10 06:18:57;;;;;;;87.88;47.22;;;333.60;2329.60;;;;;;4989852;28;20023;-58
2022/11/10 06:21:23;;;;;;;82.88;47.50;;;333.60;2329.60;;;;;;4990337;28;20069;-57
2022/11/10 06:23:48;;;;;;;86.85;49.58;;;333.70;2329.60;;;;;;4990091;28;20488;-57
2022/11/10 06:26:14;;;;;;;87.45;50.50;;;333.70;2329.60;;;;;;4989036;28;20035;-57
2022/11/10 06:28:39;;;;;;;91.07;52.72;;;333.70;2329.60;;;;;;4990271;28;20023;-57
2022/11/10 06:31:05;;;;;;;95.28;54.08;;;333.70;2329.60;;;;;;4990073;28;20460;-57
2022/11/10 06:33:31;;;;;;;89.78;53.00;;;333.70;2329.60;;;;;;4989261;28;20476;-56
2022/11/10 06:35:56;;;;;;;94.88;52.80;;;358.40;2329.60;;;;;;4990228;28;20038;-58
2022/11/10 06:38:22;;;;;;;89.55;52.92;;;358.40;2329.60;;;;;;4989040;28;20341;-57
2022/11/10 06:40:47;;;;;;;93.15;53.40;;;358.50;2329.60;;;;;;4990004;28;20025;-57
2022/11/10 06:43:13;;;;;;;85.88;51.72;;;358.60;2201.60;;;;;;4989430;28;20030;-57
2022/11/10 06:45:39;;;;;;;87.80;51.15;;;358.70;2176.00;;;;;;4989350;28;20387;-58
2022/11/10 06:48:08;;;;;;;91.07;51.50;;;358.70;2048.00;;;;;;4988962;28;20026;-58
2022/11/10 06:50:34;;;;;;;88.82;49.95;;;358.70;2150.40;;;;;;4989957;28;20376;-58
2022/11/10 06:53:00;;;;;;;87.25;50.45;;;358.80;2329.60;;;;;;4991927;28;20022;-57
2022/11/10 06:55:27;;;;;;;81.10;47.92;;;359.10;2329.60;;;;;;4991802;28;20473;-58
2022/11/10 06:57:53;;;;;;;77.75;47.03;;;358.90;2329.60;;;;;;4995917;28;20104;-57
2022/11/10 07:00:19;;;;;;;82.10;49.53;;;358.90;2329.60;;;;;;5001764;28;20449;-58
2022/11/10 07:02:45;;;;;;;82.70;48.60;;;358.80;2329.60;;;;;;4991713;28;20026;-56
2022/11/10 07:05:10;;;;;;;70.35;42.60;;;358.90;2329.60;;;;;;4994004;28;20049;-57
2022/11/10 07:07:36;;;;;;;68.25;40.85;;;358.90;2329.60;;;;;;4983724;28;20030;-57
2022/11/10 07:10:02;;;;;;;70.47;42.60;;;358.80;2329.60;;;;;;4987935;28;20026;-57
2022/11/10 07:12:27;;;;;;;73.43;41.55;;;358.90;2329.60;;;;;;4995632;28;20046;-57
2022/11/10 07:14:53;;;;;;;67.85;39.55;;;358.90;2329.60;;;;;;4994792;28;20069;-57
2022/11/10 07:17:19;;;;;;;59.40;37.65;;;358.90;2329.60;;;;;;4995132;28;20435;-57
2022/11/10 07:19:45;;;;;;;64.85;39.67;;;359.00;2329.60;;;;;;5005492;28;20468;-56
2022/11/10 07:22:10;;;;;;;62.95;37.97;;;359.00;2329.60;;;;;;5014576;28;20026;-56
2022/11/10 07:24:36;;;;;;;62.28;38.83;;;384.00;2329.60;;;;;;5011553;28;20018;-56
2022/11/10 07:27:01;;;;;;;64.10;40.17;;;359.30;2329.60;;;;;;5011181;28;20029;-57
2022/11/10 07:29:27;;;;;;;59.95;36.78;;;;;;;;;;5014041;28;20034;-57
2022/11/10 07:31:53;;;;;;;61.80;38.53;;;384.60;2329.60;;;;;;5014060;28;20022;-57
2022/11/10 07:34:19;;;;;;;61.22;37.60;;;384.60;2329.60;;;;;;5013667;28;20109;-57
2022/11/10 07:36:45;;;;;;;67.75;41.38;;;384.50;2329.60;;;;;;5013637;28;20030;-57
2022/11/10 07:39:11;;;;;;;62.25;39.92;;;384.50;2329.60;;;;;;5013882;28;20022;-56
2022/11/10 07:41:37;;;;;;;59.00;37.70;;;384.80;2329.60;;;;;;5014246;28;20061;-57
2022/11/10 07:44:02;;;;;;;55.03;34.03;;;410.20;2355.20;;;;;;5014059;28;20050;-58
2022/11/10 07:46:28;;;;;;;;;;;435.40;2355.20;;;;;;5012929;28;20046;-57
2022/11/10 07:48:54;;;;;;;;;;;487.10;2380.80;;;;;;5006108;28;20275;-57
2022/11/10 07:51:19;;;;;;;;;;;;;;;;;;5013881;28;19921;-58
2022/11/10 07:53:45;;;;;;;38.05;26.58;;;564.10;2432.00;;;;;;5011622;28;19917;-57
2022/11/10 07:56:11;;;;;;;;;;;563.70;2432.00;;;;;;5012729;28;20038;-57
2022/11/10 07:58:36;;;;;;;43.13;27.85;;;563.20;2432.00;;;;;;5013635;28;19906;-57
2022/11/10 08:01:02;;;;;;;40.33;26.45;;;588.80;2432.00;;;;;;5013583;28;20026;-57
2022/11/10 08:03:28;;;;;;;37.33;26.83;;;614.70;2380.80;;;;;;5013236;28;20495;-57
2022/11/10 08:05:54;;;;;;;33.60;24.38;;;614.70;2227.20;;;;;;5013415;28;20038;-58
2022/11/10 08:08:20;;;;;;;33.92;23.02;;;640.10;2073.60;;;;;;5009691;28;20029;-57
2022/11/10 08:10:46;;;;;;;29.83;21.77;;;614.80;2124.80;;;;;;5013695;28;20018;-58
2022/11/10 08:13:12;;;;;;;30.35;21.70;;;615.20;2099.20;;;;;;5013341;28;20021;-58
2022/11/10 08:15:39;;;;;;;28.30;20.35;;;614.90;2073.60;;;;;;4993340;28;20044;-58
2022/11/10 08:18:18;;;;;;;25.33;19.15;;;640.80;1971.20;;;;;;5012769;28;20041;-58
2022/11/10 08:20:44;;;;;;;24.75;19.20;;;666.40;1817.60;;;;;;5007473;28;20030;-59
2022/11/10 08:23:10;;;;;;;24.70;18.15;;;692.10;1689.60;;;;;;5013643;28;20025;-58
2022/11/10 08:25:36;;;;;;;24.42;17.63;;;717.60;1612.80;;;;;;5012922;28;20371;-58
2022/11/10 08:28:04;;;;;;;21.60;16.13;;;743.20;1510.40;;;;;;5013098;28;20090;-59
2022/11/10 08:30:31;;;;;;;22.75;17.02;;;742.90;1484.80;;;;;;4995249;28;20044;-57
2022/11/10 08:32:59;;;;;;;21.48;18.35;;;717.40;1510.40;;;;;;5005771;28;20475;-58
2022/11/10 08:35:26;;;;;;;28.38;20.52;;;717.00;1587.20;;;;;;5012199;28;20042;-58
2022/11/10 08:37:52;;;;;;;26.55;20.90;;;743.10;1510.40;;;;;;5008969;28;20032;-58
2022/11/10 08:40:21;;;;;;;27.75;21.60;;;768.00;1459.20;;;;;;5007716;28;20101;-58
2022/11/10 08:42:47;;;;;;;26.50;21.75;;;743.30;1459.20;;;;;;5009141;28;20032;-58
2022/11/10 08:45:14;;;;;;;31.35;23.92;;;717.70;1510.40;;;;;;5012740;28;20048;-58
2022/11/10 08:47:40;;;;;;;29.52;23.27;;;716.80;1587.20;;;;;;5013038;28;20442;-58
2022/11/10 08:50:07;;;;;;;30.13;23.52;;;691.70;1638.40;;;;;;4998173;28;20023;-57
2022/11/10 08:52:32;;;;;;;32.90;24.58;;;666.40;1664.00;;;;;;4993456;28;20034;-58
2022/11/10 08:54:58;;;;;;;35.53;25.65;;;640.90;1715.20;;;;;;4993524;28;20585;-57
2022/11/10 08:57:24;;;;;;;;;;;640.00;1843.20;;;;;;4994400;28;20447;-57
2022/11/10 08:59:49;;;;;;;;;;;614.90;1920.00;;;;;;4994318;28;19909;-57
2022/11/10 09:02:15;;;;;;;;;;;614.70;2048.00;;;;;;4994285;28;19945;-57
2022/11/10 09:04:40;;;;;;;;;;;614.40;2150.40;;;;;;4993621;28;19956;-57
2022/11/10 09:07:06;;;;;;;;;;;589.30;2201.60;;;;;;4993953;28;19952;-57
2022/11/10 09:09:31;;;;;;;;;;;589.00;2355.20;;;;;;4994229;28;20375;-57
2022/11/10 09:11:57;;;;;;;;;;;564.00;2432.00;;;;;;5009937;28;19906;-57
2022/11/10 09:14:22;;;;;;;;;;;563.50;2432.00;;;;;;5012635;28;20069;-56
2022/11/10 09:16:48;;;;;;;;;;;538.50;2406.40;;;;;;5013158;28;19960;-57
2022/11/10 09:19:13;;;;;;;;;;;538.20;2406.40;;;;;;5012733;28;19906;-57
2022/11/10 09:21:39;;;;;;;;;;;537.90;2406.40;;;;;;5013267;28;19912;-57
2022/11/10 09:24:05;;;;;;;;;;;537.60;2406.40;;;;;;5012814;28;20314;-57
2022/11/10 09:26:31;;;;;;;;;;;512.70;2380.80;;;;;;5008570;28;19910;-57
2022/11/10 09:28:56;;;;;;;38.70;26.35;;;512.40;2380.80;;;;;;5011716;28;20033;-57
2022/11/10 09:31:22;;;;;;;38.72;24.92;;;487.20;2380.80;;;;;;5011388;28;20030;-57
2022/11/10 09:33:48;;;;;;;42.35;26.80;;;487.10;2380.80;;;;;;5011390;28;20115;-57
2022/11/10 09:36:13;;;;;;;50.65;27.52;;;486.90;2380.80;;;;;;5001378;28;20042;-58
2022/11/10 09:38:39;;;;;;;40.95;24.98;;;486.60;2380.80;;;;;;4992740;28;20023;-58
2022/11/10 09:41:08;;;;;;;40.15;25.92;;;486.40;2380.80;;;;;;4992835;28;20022;-58
2022/11/10 09:44:05;;;;;;;42.83;26.10;;;461.70;2380.80;;;;;;4986175;28;20026;-57
2022/11/10 09:46:50;;;;;;;41.63;24.90;;;461.40;2380.80;;;;;;4972974;28;20027;-58
2022/11/10 09:49:28;;;;;;;39.90;24.25;;;461.40;2380.80;;;;;;4973079;28;20527;-57
2022/11/10 09:51:56;;;;;;;36.83;23.67;;;461.20;2380.80;;;;;;4973206;28;20082;-58
2022/11/10 09:54:47;;;;;;;39.40;23.45;;;461.20;2380.80;;;;;;4973035;28;20448;-57
2022/11/10 09:57:15;;;;;;;47.05;24.33;;;461.10;2380.80;;;;;;5008825;28;20479;-57
2022/11/10 09:59:42;;;;;;;39.38;23.98;;;461.00;2380.80;;;;;;5011846;28;20018;-58
2022/11/10 10:02:11;;;;;;;40.55;22.92;;;460.90;2380.80;;;;;;4988686;28;20484;-58
2022/11/10 10:05:07;;;;;;;37.35;21.55;;;460.90;2380.80;;;;;;4989321;28;20050;-57
2022/11/10 10:07:41;;;;;;;41.63;23.30;;;461.00;2380.80;;;;;;4992414;28;20096;-56
2022/11/10 10:10:45;;;;;;;36.72;22.60;;;461.10;2380.80;;;;;;4991601;28;20057;-56
2022/11/10 10:13:22;;;;;;;32.78;20.65;;;461.10;2380.80;;;;;;4913438;29;20040;-57
2022/11/10 10:16:09;;;;;;;44.53;22.45;;;461.10;2380.80;;;;;;4913056;29;20039;-57
2022/11/10 10:19:02;;;;;;;44.47;25.08;;;461.10;2380.80;;;;;;4913413;29;20028;-56
2022/11/10 10:21:43;;;;;;;46.47;23.20;;;461.00;2380.80;;;;;;4913321;29;20067;-57
2022/11/10 10:24:13;;;;;;;38.72;21.85;;;461.10;2380.80;;;;;;4926756;29;20038;-57
2022/11/10 10:26:44;;;;;;;42.75;23.83;;;461.10;2380.80;;;;;;4931062;29;20355;-57
2022/11/10 10:29:18;;;;;;;41.55;24.17;;;460.90;2380.80;;;;;;4926797;29;20035;-49
2022/11/10 10:31:48;;;;;;;41.80;23.13;;;460.80;2380.80;;;;;;4929106;29;20050;-49
2022/11/10 10:34:22;;;;;;;41.47;23.95;;;460.80;2380.80;;;;;;4929205;29;20036;-49
2022/11/10 10:36:47;;;;;;;39.78;23.50;;;436.00;2355.20;;;;;;4928855;29;20051;-49
2022/11/10 10:39:35;;;;;;;41.17;24.73;;;436.00;2355.20;;;;;;4928700;29;20100;-49
2022/11/10 10:42:01;;;;;;;41.47;24.50;;;435.80;2355.20;;;;;;4876498;29;20040;-49
2022/11/10 10:44:27;;;;;;;44.63;25.85;;;435.70;2355.20;;;;;;4875950;29;20193;-49
2022/11/10 10:46:58;;;;;;;50.33;30.98;;;435.70;2355.20;;;;;;4876640;29;20041;-49
2022/11/10 10:49:26;;;;;;;42.22;24.80;;;435.50;2355.20;;;;;;4892302;29;20044;-49
2022/11/10 10:52:10;;;;;;;42.55;25.00;;;435.40;2355.20;;;;;;4913844;29;20097;-50
2022/11/10 10:54:38;;;;;;;44.10;24.67;;;435.30;2355.20;;;;;;4913770;29;20056;-50
2022/11/10 10:57:28;;;;;;;42.15;25.02;;;435.20;2355.20;;;;;;4914336;29;20078;-49
2022/11/10 11:00:09;;;;;;;48.35;27.20;;;;;;;;;;4914375;29;20553;-49
2022/11/10 11:02:36;;;;;;;42.22;25.23;;;;;;;;;;4913363;29;20024;-49
2022/11/10 11:05:13;;;;;;;46.50;26.15;;;;;;;;;;4911601;29;20036;-50
2022/11/10 11:07:40;;;;;;;44.30;26.13;;;;;;;;;;4909769;29;20024;-49
2022/11/10 11:10:25;;;;;;;47.55;26.40;;;;;;;;;;4914008;29;20036;-49
2022/11/10 11:12:51;;;;;;;47.92;27.55;;;;;;;;;;4914434;29;20043;-50
2022/11/10 11:15:27;;;;;;;46.90;27.90;;;435.20;2355.20;;;;;;4916482;29;20438;-49
2022/11/10 11:17:58;;;;;;;50.50;28.38;;;410.40;2355.20;;;;;;4933263;29;20075;-52
2022/11/10 11:20:42;;;;;;;52.42;29.17;;;410.20;2355.20;;;;;;5012078;28;20827;-50
2022/11/10 11:23:51;;;;;;;55.50;30.33;;;410.10;2355.20;;;;;;5000636;28;20030;-52
2022/11/10 11:26:54;;;;;;;54.13;29.25;;;409.80;2355.20;;;;;;4974793;28;20035;-51
2022/11/10 11:29:36;;;;;;;55.42;28.27;;;410.20;2355.20;;;;;;4973446;28;20031;-50
2022/11/10 11:32:29;;;;;;;55.30;29.35;;;410.20;2355.20;;;;;;4975020;28;20117;-51
2022/11/10 11:35:11;;;;;;;50.22;26.58;;;410.40;2355.20;;;;;;4984114;28;20030;-51
2022/11/10 11:37:51;;;;;;;55.45;29.70;;;435.20;2355.20;;;;;;4993163;28;20037;-51
2022/11/10 11:40:41;;;;;;;46.78;25.35;;;435.20;2355.20;;;;;;4994642;28;20026;-50
2022/11/10 11:43:26;;;;;;;50.67;26.77;;;435.20;2355.20;;;;;;4994637;28;20074;-51
2022/11/10 11:46:15;;;;;;;55.55;27.95;;;410.40;2355.20;;;;;;4991116;28;20034;-51
2022/11/10 11:49:20;;;;;;;55.20;27.90;;;410.40;2355.20;;;;;;4896002;29;20100;-50
2022/11/10 11:52:00;;;;;;;65.30;34.05;;;410.20;2355.20;;;;;;4891763;29;20051;-51
2022/11/10 11:55:03;;;;;;;56.35;28.75;;;410.30;2355.20;;;;;;4894974;29;20048;-51
2022/11/10 11:57:41;;;;;;;51.93;26.93;;;410.50;2355.20;;;;;;4894159;29;20044;-50
2022/11/10 12:00:15;;;;;;;58.58;30.50;;;410.50;2355.20;;;;;;4893756;29;20049;-51
2022/11/10 12:03:20;;;;;;;51.92;27.73;;;410.40;2355.20;;;;;;4886386;29;20506;-51
2022/11/10 12:06:13;;;;;;;49.00;26.27;;;410.50;2355.20;;;;;;4820486;29;20042;-50
2022/11/10 12:08:55;;;;;;;50.40;27.38;;;410.50;2355.20;;;;;;4838362;29;20038;-51
2022/11/10 12:11:35;;;;;;;49.80;25.52;;;410.40;2355.20;;;;;;4823091;29;20049;-51
2022/11/10 12:14:16;;;;;;;49.47;25.63;;;410.30;2355.20;;;;;;4837835;29;20034;-51
2022/11/10 12:17:04;;;;;;;54.53;27.77;;;410.30;2355.20;;;;;;4838394;29;20049;-51
2022/11/10 12:19:32;;;;;;;50.28;26.52;;;410.20;2355.20;;;;;;4839502;29;20336;-51
2022/11/10 12:22:20;;;;;;;50.90;26.50;;;410.20;2355.20;;;;;;4822540;29;20042;-51
2022/11/10 12:24:57;;;;;;;53.60;28.00;;;410.20;2355.20;;;;;;4832079;29;20033;-54
2022/11/10 12:27:45;;;;;;;56.20;28.65;;;410.10;2355.20;;;;;;4933561;29;20517;-53
2022/11/10 12:30:16;;;;;;;51.70;26.23;;;410.10;2355.20;;;;;;4932731;29;20035;-52
2022/11/10 12:33:08;;;;;;;49.53;25.58;;;410.10;2355.20;;;;;;4933536;29;20123;-51
2022/11/10 12:35:38;;;;;;;48.53;25.50;;;410.10;2355.20;;;;;;4878521;29;20048;-51
2022/11/10 12:38:11;;;;;;;46.85;23.48;;;410.10;2355.20;;;;;;4859072;29;20101;-53
2022/11/10 12:40:41;;;;;;;40.85;21.75;;;410.00;2355.20;;;;;;4892971;29;20087;-51
2022/11/10 12:43:28;;;;;;;42.35;21.73;;;410.10;2355.20;;;;;;4949000;28;20531;-51
2022/11/10 12:45:58;;;;;;;51.72;24.05;;;410.10;2355.20;;;;;;4963633;28;20466;-51
2022/11/10 12:48:28;;;;;;;39.58;22.23;;;410.10;2355.20;;;;;;4941711;29;20235;-51
2022/11/10 12:51:18;;;;;;;42.50;22.27;;;410.10;2355.20;;;;;;4935645;29;20076;-54
2022/11/10 12:53:46;;;;;;;63.40;31.10;;;410.00;2355.20;;;;;;4933143;29;20051;-50